Time;durP1;ratioP1;P1;durP2;ratioP2;P2;SDS_P1;SDS_P2;PMS_P1;PMS_P2;Temp;Humidity;BMP_temperature;BMP_pressure;BME280_temperature;BME280_humidity;BME280_pressure;Samples;Min_cycle;Max_cycle;Signal;HPM_P1;HPM_P2
2022/08/26 00:01:40;;;;;;;35.10;21.92;;;20.60;99.90;;;;;;6220831;23;20023;-79
2022/08/26 00:04:06;;;;;;;35.65;22.40;;;20.60;99.90;;;;;;6194217;23;20061;-80
2022/08/26 00:06:32;;;;;;;36.17;22.48;;;20.60;99.90;;;;;;6220651;23;20093;-80
2022/08/26 00:08:59;;;;;;;38.88;23.38;;;20.60;99.90;;;;;;6220174;23;20103;-80
2022/08/26 00:11:25;;;;;;;36.65;24.38;;;20.70;99.90;;;;;;6246673;23;20437;-80
2022/08/26 00:13:50;;;;;;;36.00;22.67;;;20.70;99.90;;;;;;6195357;23;20016;-79
2022/08/26 00:16:16;;;;;;;35.65;21.90;;;20.70;99.90;;;;;;6247961;23;20092;-79
2022/08/26 00:18:42;;;;;;;36.60;20.90;;;20.70;99.90;;;;;;6193742;23;20020;-80
2022/08/26 00:21:08;;;;;;;35.17;22.67;;;20.70;99.90;;;;;;6220623;23;20020;-79
2022/08/26 00:23:34;;;;;;;33.45;22.02;;;20.60;99.90;;;;;;6247110;23;20013;-79
2022/08/26 00:26:00;;;;;;;35.25;21.33;;;20.60;99.90;;;;;;6219697;23;20123;-79
2022/08/26 00:28:26;;;;;;;37.80;22.10;;;20.60;99.90;;;;;;6219678;23;20020;-79
2022/08/26 00:30:52;;;;;;;34.13;21.75;;;20.60;99.90;;;;;;6219039;23;20015;-81
2022/08/26 00:33:19;;;;;;;31.88;20.27;;;20.60;99.90;;;;;;6246400;23;20028;-78
2022/08/26 00:35:46;;;;;;;27.92;19.40;;;20.60;99.90;;;;;;6247817;23;20015;-78
2022/08/26 00:38:13;;;;;;;39.47;21.23;;;20.60;99.90;;;;;;6218984;23;20024;-79
2022/08/26 00:40:48;;;;;;;29.00;18.95;;;20.60;99.90;;;;;;6247696;23;20340;-79
2022/08/26 00:43:14;;;;;;;30.73;17.60;;;20.60;99.90;;;;;;6247242;23;20326;-80
2022/08/26 00:45:51;;;;;;;27.75;17.23;;;20.60;99.90;;;;;;6219581;23;20019;-79
2022/08/26 00:48:21;;;;;;;30.40;18.63;;;20.60;99.90;;;;;;6219928;23;20103;-79
2022/08/26 00:51:16;;;;;;;29.23;18.85;;;20.60;99.90;;;;;;6220875;23;20016;-80
2022/08/26 00:53:46;;;;;;;;;;;20.60;99.90;;;;;;6220098;23;20091;-79
2022/08/26 00:56:19;;;;;;;32.67;18.48;;;20.60;99.90;;;;;;6195229;23;20272;-79
2022/08/26 00:58:46;;;;;;;34.38;17.67;;;20.50;99.90;;;;;;6246424;23;20131;-79
2022/08/26 01:01:13;;;;;;;28.73;16.90;;;20.50;99.90;;;;;;6217968;23;20054;-79
2022/08/26 01:03:40;;;;;;;27.67;16.50;;;20.50;99.90;;;;;;6195230;23;20095;-79
2022/08/26 01:06:08;;;;;;;35.25;17.38;;;20.50;99.90;;;;;;6246091;23;20016;-79
2022/08/26 01:08:34;;;;;;;29.50;15.93;;;20.50;99.90;;;;;;6219526;23;20020;-80
2022/08/26 01:11:01;;;;;;;27.30;15.68;;;20.50;99.90;;;;;;6219698;23;20444;-78
2022/08/26 01:13:29;;;;;;;25.10;14.77;;;20.50;99.90;;;;;;6219338;23;20015;-79
2022/08/26 01:15:57;;;;;;;25.90;13.60;;;20.50;99.90;;;;;;6246083;23;20429;-81
2022/08/26 01:18:24;;;;;;;25.40;13.75;;;20.50;99.90;;;;;;6220123;23;20016;-79
2022/08/26 01:21:13;;;;;;;25.48;13.43;;;20.50;99.90;;;;;;6219123;23;20016;-79
2022/08/26 01:23:46;;;;;;;29.60;13.75;;;20.50;99.90;;;;;;6220093;23;20457;-79
2022/08/26 01:26:17;;;;;;;22.52;12.73;;;20.40;99.90;;;;;;6246490;23;20023;-79
2022/08/26 01:28:43;;;;;;;24.35;12.02;;;20.40;99.90;;;;;;6219090;23;20073;-79
2022/08/26 01:31:13;;;;;;;24.90;11.82;;;20.40;99.90;;;;;;6194188;23;20091;-79
2022/08/26 01:33:54;;;;;;;24.33;11.43;;;20.40;99.90;;;;;;6220226;23;20091;-79
2022/08/26 01:36:21;;;;;;;26.38;12.13;;;20.40;99.90;;;;;;6245348;23;20027;-79
2022/08/26 01:38:46;;;;;;;26.42;11.77;;;20.40;99.90;;;;;;6245203;23;20348;-79
2022/08/26 01:41:13;;;;;;;24.98;11.88;;;20.40;99.90;;;;;;6217528;23;20066;-79
2022/08/26 01:43:44;;;;;;;24.73;11.30;;;20.40;99.90;;;;;;6247029;23;20012;-78
2022/08/26 01:46:12;;;;;;;23.08;12.18;;;20.40;99.90;;;;;;6194418;23;20020;-78
2022/08/26 01:48:40;;;;;;;22.00;11.27;;;20.40;99.90;;;;;;6245543;23;20034;-79
2022/08/26 01:51:09;;;;;;;22.92;11.05;;;20.40;99.90;;;;;;6219448;23;20058;-79
2022/08/26 01:53:36;;;;;;;22.05;10.23;;;20.40;99.90;;;;;;6246646;23;20083;-79
2022/08/26 01:56:03;;;;;;;20.05;9.57;;;20.40;99.90;;;;;;6245513;23;20034;-80
2022/08/26 01:58:37;;;;;;;25.05;10.98;;;20.40;99.90;;;;;;6219872;23;20031;-78
2022/08/26 02:01:04;;;;;;;;;;;20.40;99.90;;;;;;6219426;23;20016;-79
2022/08/26 02:03:30;;;;;;;23.88;10.82;;;20.30;99.90;;;;;;6245492;23;19916;-79
2022/08/26 02:06:03;;;;;;;20.15;10.45;;;20.30;99.90;;;;;;6245675;23;20466;-78
2022/08/26 02:08:42;;;;;;;19.00;10.63;;;20.30;99.90;;;;;;6246719;23;20016;-79
2022/08/26 02:11:09;;;;;;;27.58;11.65;;;20.30;99.90;;;;;;6217700;23;20092;-79
2022/08/26 02:13:41;;;;;;;26.40;10.95;;;20.30;99.90;;;;;;6194653;23;20022;-78
2022/08/26 02:16:07;;;;;;;29.35;11.95;;;20.30;99.90;;;;;;6246377;23;20083;-81
2022/08/26 02:18:35;;;;;;;27.23;11.27;;;20.30;99.90;;;;;;6218657;23;20020;-79
2022/08/26 02:21:01;;;;;;;25.30;11.63;;;20.30;99.90;;;;;;6246393;23;20087;-79
2022/08/26 02:23:27;;;;;;;24.42;11.45;;;20.30;99.90;;;;;;6218514;23;20474;-78
2022/08/26 19:42:28;;;;;;;10.00;2.05;;;17.80;99.90;;;;;;6240943;23;20031;-80
2022/08/26 19:45:06;;;;;;;6.97;2.10;;;17.80;99.90;;;;;;6219998;23;20058;-82
2022/08/26 19:47:35;;;;;;;10.65;2.40;;;17.80;99.90;;;;;;6246624;23;20024;-79
2022/08/26 19:50:03;;;;;;;6.28;2.33;;;17.80;99.90;;;;;;6219543;23;20023;-79
2022/08/26 19:52:29;;;;;;;10.05;2.47;;;17.70;99.90;;;;;;6220158;23;20024;-79
2022/08/26 19:54:55;;;;;;;5.70;1.85;;;17.70;99.90;;;;;;6217985;23;20450;-80
2022/08/26 19:57:21;;;;;;;8.73;2.20;;;17.70;99.90;;;;;;6218877;23;20017;-80
2022/08/26 19:59:47;;;;;;;9.98;1.83;;;17.70;99.90;;;;;;6219080;23;20027;-81
2022/08/26 20:02:13;;;;;;;8.05;1.90;;;17.70;99.90;;;;;;6245740;23;20019;-81
2022/08/26 20:04:40;;;;;;;7.93;1.85;;;17.60;99.90;;;;;;6219211;23;20020;-81
2022/08/26 20:07:08;;;;;;;5.22;1.90;;;17.60;99.90;;;;;;6220394;23;20023;-81
2022/08/26 20:09:35;;;;;;;10.52;2.38;;;17.60;99.90;;;;;;6219847;23;20052;-81
2022/08/26 20:12:03;;;;;;;8.27;1.98;;;17.50;99.90;;;;;;6246645;23;20023;-81
2022/08/26 20:14:29;;;;;;;8.23;2.25;;;17.50;99.90;;;;;;6246245;23;20510;-80
2022/08/26 20:16:56;;;;;;;7.85;1.77;;;17.40;99.90;;;;;;6194553;23;20106;-80
2022/08/26 20:22:07;;;;;;;6.80;2.25;;;17.40;99.90;;;;;;6247135;23;20047;-80
2022/08/26 20:24:33;;;;;;;12.35;2.33;;;17.30;99.90;;;;;;6218541;23;20020;-79
2022/08/26 20:26:59;;;;;;;10.55;2.00;;;17.30;99.90;;;;;;6247309;23;20016;-80
2022/08/26 20:29:24;;;;;;;11.88;2.33;;;17.30;99.90;;;;;;6246355;23;20020;-79
2022/08/26 20:31:51;;;;;;;8.63;2.30;;;17.30;99.90;;;;;;6245058;23;20439;-80
2022/08/26 20:34:18;;;;;;;8.82;2.20;;;17.20;99.90;;;;;;6219795;23;20094;-79
2022/08/26 20:36:45;;;;;;;10.32;2.10;;;17.20;99.90;;;;;;6219581;23;20020;-80
2022/08/26 20:39:12;;;;;;;6.20;1.95;;;17.10;99.90;;;;;;6193847;23;20114;-80
2022/08/26 20:41:39;;;;;;;7.40;2.10;;;17.00;99.90;;;;;;6246653;22;20457;-80
2022/08/26 20:44:05;;;;;;;6.85;1.98;;;16.90;99.90;;;;;;6246787;23;20448;-80
2022/08/26 20:46:33;;;;;;;7.22;1.83;;;16.90;99.90;;;;;;6218684;23;20020;-80
2022/08/26 20:48:59;;;;;;;12.27;2.28;;;16.90;99.90;;;;;;6246513;23;20024;-79
2022/08/26 20:51:25;;;;;;;5.72;1.95;;;16.80;99.90;;;;;;6219578;23;20048;-79
2022/08/26 20:53:52;;;;;;;7.97;2.08;;;16.70;99.90;;;;;;6245711;23;20067;-78
2022/08/26 20:56:25;;;;;;;8.80;2.00;;;16.60;99.90;;;;;;6219399;23;20015;-80
2022/08/26 20:58:53;;;;;;;3.92;2.10;;;16.60;99.90;;;;;;6219899;23;20016;-79
2022/08/26 21:01:22;;;;;;;7.68;2.05;;;16.60;99.90;;;;;;6244445;23;20091;-80
2022/08/26 21:03:51;;;;;;;6.90;2.00;;;16.50;99.90;;;;;;6247739;23;20055;-80
2022/08/26 21:06:16;;;;;;;7.18;2.00;;;16.40;99.90;;;;;;6194020;23;20443;-79
2022/08/26 21:08:42;;;;;;;6.07;2.45;;;16.40;99.90;;;;;;6194749;23;20023;-79
2022/08/26 21:11:08;;;;;;;7.88;2.30;;;16.30;99.90;;;;;;6244844;23;20016;-79
2022/08/26 21:13:34;;;;;;;5.45;2.08;;;16.30;99.90;;;;;;6244629;23;20024;-80
2022/08/26 21:16:00;;;;;;;10.63;2.65;;;16.20;99.90;;;;;;6217895;23;20074;-80
2022/08/26 21:18:25;;;;;;;9.80;2.97;;;16.20;99.90;;;;;;6245671;23;20091;-79
2022/08/26 21:20:51;;;;;;;7.18;2.05;;;16.20;99.90;;;;;;6218964;23;20019;-79
2022/08/26 21:23:17;;;;;;;6.13;2.40;;;16.10;99.90;;;;;;6220256;23;20027;-80
2022/08/26 21:25:43;;;;;;;8.07;2.80;;;16.00;99.90;;;;;;6220007;23;20478;-79
2022/08/26 21:28:10;;;;;;;10.48;2.10;;;16.00;99.90;;;;;;6194042;23;20050;-80
2022/08/26 21:30:37;;;;;;;6.63;2.17;;;15.90;99.90;;;;;;6194613;23;20610;-79
2022/08/26 21:33:02;;;;;;;6.18;1.85;;;15.80;99.90;;;;;;6247041;23;20027;-80
2022/08/26 21:35:28;;;;;;;9.32;2.75;;;15.70;99.90;;;;;;6218869;23;20020;-79
2022/08/26 21:37:54;;;;;;;9.93;2.30;;;15.70;99.90;;;;;;6245504;23;20019;-80
2022/08/26 21:40:20;;;;;;;4.85;2.15;;;15.70;99.90;;;;;;6247343;23;20309;-80
2022/08/26 21:42:46;;;;;;;15.30;2.72;;;15.60;99.90;;;;;;6213614;23;20495;-80
2022/08/26 21:45:12;;;;;;;12.88;2.80;;;15.50;99.90;;;;;;6216661;23;20025;-80
2022/08/26 21:47:39;;;;;;;5.75;2.10;;;15.50;99.90;;;;;;6216300;23;20028;-80
2022/08/26 21:50:06;;;;;;;7.28;2.22;;;15.40;99.90;;;;;;6214150;23;20052;-80
2022/08/26 21:52:32;;;;;;;7.05;3.20;;;15.30;99.90;;;;;;6214525;23;20052;-80
2022/08/26 21:54:59;;;;;;;5.25;1.88;;;15.30;99.90;;;;;;6214962;23;20395;-80
2022/08/26 21:57:26;;;;;;;9.25;2.00;;;15.20;99.90;;;;;;6212738;23;20436;-79
2022/08/26 21:59:53;;;;;;;12.52;2.45;;;15.20;99.90;;;;;;6214768;23;20063;-80
2022/08/26 22:02:19;;;;;;;8.38;2.25;;;15.10;99.90;;;;;;6214467;23;20068;-80
2022/08/26 22:04:45;;;;;;;8.35;2.85;;;15.10;99.90;;;;;;6215496;23;20478;-80
2022/08/26 22:07:11;;;;;;;10.85;2.50;;;15.00;99.90;;;;;;6214454;23;20016;-80
2022/08/26 22:09:37;;;;;;;7.88;2.15;;;15.00;99.90;;;;;;6215273;23;20326;-80
2022/08/26 22:12:06;;;;;;;9.05;2.00;;;14.90;99.90;;;;;;6214400;23;20043;-80
2022/08/26 22:14:32;;;;;;;12.38;2.45;;;14.80;99.90;;;;;;6214855;23;20051;-80
2022/08/26 22:16:58;;;;;;;10.82;2.22;;;14.80;99.90;;;;;;6215245;23;20349;-80
2022/08/26 22:19:25;;;;;;;10.05;2.63;;;14.80;99.90;;;;;;6214386;23;20023;-80
2022/08/26 22:21:53;;;;;;;5.70;2.22;;;14.70;99.90;;;;;;6216137;23;20019;-80
2022/08/26 22:24:20;;;;;;;6.55;1.90;;;14.70;99.90;;;;;;6213392;23;20021;-80
2022/08/26 22:26:47;;;;;;;5.43;2.10;;;14.60;99.90;;;;;;6214736;23;20035;-80
2022/08/26 22:29:13;;;;;;;8.93;2.40;;;14.60;99.90;;;;;;6214126;23;20020;-80
2022/08/26 22:31:40;;;;;;;8.20;2.00;;;14.60;99.90;;;;;;6215651;23;20353;-80
2022/08/26 22:34:09;;;;;;;15.65;2.30;;;14.50;99.90;;;;;;6216084;23;20080;-80
2022/08/26 22:36:36;;;;;;;9.85;3.03;;;14.50;99.90;;;;;;6214662;23;20020;-80
2022/08/26 22:39:03;;;;;;;6.50;2.55;;;14.40;99.90;;;;;;6213236;23;20028;-80
2022/08/26 22:41:29;;;;;;;11.25;2.40;;;14.40;99.90;;;;;;6214327;23;20017;-80
2022/08/26 22:43:55;;;;;;;3.85;2.10;;;14.40;99.90;;;;;;6215624;23;20031;-80
2022/08/26 22:46:25;;;;;;;9.07;3.08;;;14.40;99.90;;;;;;6213627;23;20058;-80
2022/08/26 22:48:52;;;;;;;4.45;2.35;;;14.40;99.90;;;;;;6213957;23;20078;-80
2022/08/26 22:51:19;;;;;;;5.85;1.83;;;14.30;99.90;;;;;;6214476;23;20375;-80
2022/08/26 22:53:45;;;;;;;9.90;2.92;;;14.30;99.90;;;;;;6213246;23;20056;-80
2022/08/26 22:56:11;;;;;;;7.70;2.80;;;14.20;99.90;;;;;;6216432;23;20074;-80
2022/08/26 22:58:37;;;;;;;7.25;3.20;;;14.20;99.90;;;;;;6216351;23;20368;-80
2022/08/26 23:01:05;;;;;;;5.28;2.47;;;14.20;99.90;;;;;;6213301;23;20047;-80
2022/08/26 23:03:30;;;;;;;10.02;3.25;;;14.20;99.90;;;;;;6214425;23;20471;-80
2022/08/26 23:05:56;;;;;;;5.50;2.47;;;14.10;99.90;;;;;;6213037;23;20016;-80
2022/08/26 23:08:23;;;;;;;6.72;2.58;;;14.10;99.90;;;;;;6214216;23;20048;-80
2022/08/26 23:10:50;;;;;;;6.88;2.65;;;14.10;99.90;;;;;;6214596;23;20017;-80
2022/08/26 23:13:16;;;;;;;4.13;2.28;;;14.00;99.90;;;;;;6215519;23;20021;-80
2022/08/26 23:15:43;;;;;;;6.88;2.97;;;14.00;99.90;;;;;;6216026;23;20016;-80
2022/08/26 23:18:10;;;;;;;3.42;2.20;;;13.90;99.90;;;;;;6216388;23;20459;-80
2022/08/26 23:20:37;;;;;;;7.97;2.38;;;13.90;99.90;;;;;;6215050;23;20017;-80
2022/08/26 23:23:03;;;;;;;11.65;3.50;;;13.90;99.90;;;;;;6216331;23;20099;-80
2022/08/26 23:25:31;;;;;;;4.22;2.42;;;13.80;99.90;;;;;;6217786;23;20102;-80
2022/08/26 23:27:58;;;;;;;13.43;3.65;;;13.80;99.90;;;;;;6217263;23;20128;-80
2022/08/26 23:30:26;;;;;;;5.70;2.72;;;13.70;99.90;;;;;;6217748;23;20020;-80
2022/08/26 23:32:52;;;;;;;5.28;2.50;;;13.70;99.90;;;;;;6216326;23;20023;-80
2022/08/26 23:35:20;;;;;;;7.63;3.25;;;13.70;99.90;;;;;;6215407;23;20371;-80
2022/08/26 23:37:49;;;;;;;8.57;3.67;;;13.70;99.90;;;;;;6216379;23;20348;-80
2022/08/26 23:40:31;;;;;;;6.10;2.97;;;13.70;99.90;;;;;;6215872;23;20052;-80
2022/08/26 23:42:59;;;;;;;5.70;2.97;;;13.70;99.90;;;;;;6217395;23;20024;-80
2022/08/26 23:45:26;;;;;;;7.22;3.13;;;13.60;99.90;;;;;;6217718;23;20035;-80
2022/08/26 23:47:53;;;;;;;8.52;3.25;;;13.60;99.90;;;;;;6218419;23;20020;-80
2022/08/26 23:50:21;;;;;;;11.55;4.13;;;13.50;99.90;;;;;;6189782;23;20048;-80
2022/08/26 23:53:07;;;;;;;10.85;3.72;;;13.50;99.90;;;;;;6216147;23;20012;-80
2022/08/26 23:55:35;;;;;;;10.90;3.70;;;13.50;99.90;;;;;;6216629;23;20049;-80
2022/08/26 23:58:01;;;;;;;8.70;3.17;;;13.50;99.90;;;;;;6216121;23;20132;-80
